sensor_id;sensor_type;location;lat;lon;timestamp;P1;durP1;ratioP1;P2;durP2;ratioP2
42018;SDS011;27703;51.980;5.848;2023-03-01T00:02:00;3.85;;;1.48;;
42018;SDS011;27703;51.980;5.848;2023-03-01T00:04:26;3.03;;;1.35;;
42018;SDS011;27703;51.980;5.848;2023-03-01T00:06:52;2.08;;;0.90;;
42018;SDS011;27703;51.980;5.848;2023-03-01T00:09:18;2.58;;;1.25;;
42018;SDS011;27703;51.980;5.848;2023-03-01T00:11:44;2.40;;;1.00;;
42018;SDS011;27703;51.980;5.848;2023-03-01T00:14:09;1.98;;;0.90;;
42018;SDS011;27703;51.980;5.848;2023-03-01T00:16:37;2.47;;;1.00;;
42018;SDS011;27703;51.980;5.848;2023-03-01T00:19:05;2.25;;;1.00;;
42018;SDS011;27703;51.980;5.848;2023-03-01T00:21:31;2.20;;;1.30;;
42018;SDS011;27703;51.980;5.848;2023-03-01T00:23:58;3.53;;;1.20;;
42018;SDS011;27703;51.980;5.848;2023-03-01T00:26:24;2.90;;;1.30;;
42018;SDS011;27703;51.980;5.848;2023-03-01T00:28:51;3.85;;;1.73;;
42018;SDS011;27703;51.980;5.848;2023-03-01T00:31:19;2.60;;;1.30;;
42018;SDS011;27703;51.980;5.848;2023-03-01T00:33:46;3.50;;;1.13;;
42018;SDS011;27703;51.980;5.848;2023-03-01T00:36:12;2.55;;;1.15;;
42018;SDS011;27703;51.980;5.848;2023-03-01T00:38:45;2.67;;;1.23;;
42018;SDS011;27703;51.980;5.848;2023-03-01T00:41:14;3.00;;;1.33;;
42018;SDS011;27703;51.980;5.848;2023-03-01T00:43:41;4.17;;;1.00;;
42018;SDS011;27703;51.980;5.848;2023-03-01T00:46:11;2.67;;;1.42;;
42018;SDS011;27703;51.980;5.848;2023-03-01T00:48:38;3.60;;;1.45;;
42018;SDS011;27703;51.980;5.848;2023-03-01T00:51:14;1.92;;;0.88;;
42018;SDS011;27703;51.980;5.848;2023-03-01T00:53:45;2.70;;;2.05;;
42018;SDS011;27703;51.980;5.848;2023-03-01T00:56:11;3.45;;;1.10;;
42018;SDS011;27703;51.980;5.848;2023-03-01T00:58:38;3.03;;;1.50;;
42018;SDS011;27703;51.980;5.848;2023-03-01T01:01:12;2.85;;;1.45;;
42018;SDS011;27703;51.980;5.848;2023-03-01T01:03:49;3.08;;;1.45;;
42018;SDS011;27703;51.980;5.848;2023-03-01T01:06:19;2.30;;;1.25;;
42018;SDS011;27703;51.980;5.848;2023-03-01T01:08:50;4.82;;;2.33;;
42018;SDS011;27703;51.980;5.848;2023-03-01T01:11:16;4.22;;;1.65;;
42018;SDS011;27703;51.980;5.848;2023-03-01T01:13:43;3.38;;;1.63;;
42018;SDS011;27703;51.980;5.848;2023-03-01T01:16:10;3.47;;;1.77;;
42018;SDS011;27703;51.980;5.848;2023-03-01T01:18:35;3.40;;;1.48;;
42018;SDS011;27703;51.980;5.848;2023-03-01T01:21:05;2.55;;;1.33;;
42018;SDS011;27703;51.980;5.848;2023-03-01T01:23:32;2.72;;;1.60;;
42018;SDS011;27703;51.980;5.848;2023-03-01T01:26:02;4.10;;;1.92;;
42018;SDS011;27703;51.980;5.848;2023-03-01T01:28:29;4.55;;;1.95;;
42018;SDS011;27703;51.980;5.848;2023-03-01T01:30:54;3.03;;;1.35;;
42018;SDS011;27703;51.980;5.848;2023-03-01T01:33:20;3.28;;;2.00;;
42018;SDS011;27703;51.980;5.848;2023-03-01T01:35:45;2.72;;;1.90;;
42018;SDS011;27703;51.980;5.848;2023-03-01T01:38:11;2.63;;;1.67;;
42018;SDS011;27703;51.980;5.848;2023-03-01T01:40:42;3.15;;;2.05;;
42018;SDS011;27703;51.980;5.848;2023-03-01T01:43:16;4.10;;;2.33;;
42018;SDS011;27703;51.980;5.848;2023-03-01T01:45:59;4.35;;;1.88;;
42018;SDS011;27703;51.980;5.848;2023-03-01T01:48:31;4.05;;;2.17;;
42018;SDS011;27703;51.980;5.848;2023-03-01T01:51:14;3.95;;;2.65;;
42018;SDS011;27703;51.980;5.848;2023-03-01T01:53:44;3.88;;;1.73;;
42018;SDS011;27703;51.980;5.848;2023-03-01T01:56:13;3.67;;;1.88;;
42018;SDS011;27703;51.980;5.848;2023-03-01T01:58:40;3.45;;;2.22;;
42018;SDS011;27703;51.980;5.848;2023-03-01T02:01:07;3.88;;;1.85;;
42018;SDS011;27703;51.980;5.848;2023-03-01T02:03:33;2.58;;;1.60;;
42018;SDS011;27703;51.980;5.848;2023-03-01T02:08:44;3.47;;;1.80;;
42018;SDS011;27703;51.980;5.848;2023-03-01T02:11:12;3.80;;;2.25;;
42018;SDS011;27703;51.980;5.848;2023-03-01T02:13:39;4.15;;;1.58;;
42018;SDS011;27703;51.980;5.848;2023-03-01T02:16:08;2.53;;;1.45;;
42018;SDS011;27703;51.980;5.848;2023-03-01T02:18:35;3.95;;;2.17;;
42018;SDS011;27703;51.980;5.848;2023-03-01T02:21:20;5.13;;;2.63;;
42018;SDS011;27703;51.980;5.848;2023-03-01T02:23:55;3.28;;;1.83;;
42018;SDS011;27703;51.980;5.848;2023-03-01T02:29:17;3.65;;;2.63;;
42018;SDS011;27703;51.980;5.848;2023-03-01T02:31:43;4.38;;;2.63;;
42018;SDS011;27703;51.980;5.848;2023-03-01T02:34:13;3.92;;;2.20;;
42018;SDS011;27703;51.980;5.848;2023-03-01T02:39:40;2.58;;;1.48;;
42018;SDS011;27703;51.980;5.848;2023-03-01T02:42:16;3.75;;;2.00;;
42018;SDS011;27703;51.980;5.848;2023-03-01T02:44:48;3.17;;;1.60;;
42018;SDS011;27703;51.980;5.848;2023-03-01T02:47:14;3.40;;;1.98;;
42018;SDS011;27703;51.980;5.848;2023-03-01T02:49:40;3.13;;;1.80;;
42018;SDS011;27703;51.980;5.848;2023-03-01T02:55:00;4.10;;;1.73;;
42018;SDS011;27703;51.980;5.848;2023-03-01T02:57:30;3.67;;;2.03;;
42018;SDS011;27703;51.980;5.848;2023-03-01T02:59:59;3.95;;;1.50;;
42018;SDS011;27703;51.980;5.848;2023-03-01T03:02:32;3.83;;;2.08;;
42018;SDS011;27703;51.980;5.848;2023-03-01T03:05:03;3.50;;;1.90;;
42018;SDS011;27703;51.980;5.848;2023-03-01T03:07:40;5.63;;;2.00;;
42018;SDS011;27703;51.980;5.848;2023-03-01T03:10:11;5.10;;;2.38;;
42018;SDS011;27703;51.980;5.848;2023-03-01T03:12:40;4.32;;;1.95;;
42018;SDS011;27703;51.980;5.848;2023-03-01T03:15:06;4.05;;;1.85;;
42018;SDS011;27703;51.980;5.848;2023-03-01T03:17:36;3.28;;;1.65;;
42018;SDS011;27703;51.980;5.848;2023-03-01T03:20:03;2.35;;;1.42;;
42018;SDS011;27703;51.980;5.848;2023-03-01T03:22:31;2.92;;;1.48;;
42018;SDS011;27703;51.980;5.848;2023-03-01T03:24:58;4.70;;;1.45;;
42018;SDS011;27703;51.980;5.848;2023-03-01T03:27:24;4.00;;;2.28;;
42018;SDS011;27703;51.980;5.848;2023-03-01T03:29:50;4.18;;;2.13;;
42018;SDS011;27703;51.980;5.848;2023-03-01T03:32:15;2.58;;;1.13;;
42018;SDS011;27703;51.980;5.848;2023-03-01T03:34:41;3.70;;;1.63;;
42018;SDS011;27703;51.980;5.848;2023-03-01T03:37:06;3.17;;;1.88;;
42018;SDS011;27703;51.980;5.848;2023-03-01T03:39:52;3.50;;;1.23;;
42018;SDS011;27703;51.980;5.848;2023-03-01T03:42:19;2.80;;;1.40;;
42018;SDS011;27703;51.980;5.848;2023-03-01T03:44:47;4.30;;;1.40;;
42018;SDS011;27703;51.980;5.848;2023-03-01T03:47:13;3.50;;;1.92;;
42018;SDS011;27703;51.980;5.848;2023-03-01T03:49:38;5.22;;;1.85;;
42018;SDS011;27703;51.980;5.848;2023-03-01T03:52:04;3.50;;;1.83;;
42018;SDS011;27703;51.980;5.848;2023-03-01T03:54:29;3.03;;;1.42;;
42018;SDS011;27703;51.980;5.848;2023-03-01T03:56:55;3.33;;;1.67;;
42018;SDS011;27703;51.980;5.848;2023-03-01T03:59:20;3.30;;;1.80;;
42018;SDS011;27703;51.980;5.848;2023-03-01T04:01:46;3.80;;;1.60;;
42018;SDS011;27703;51.980;5.848;2023-03-01T04:04:11;3.42;;;1.83;;
42018;SDS011;27703;51.980;5.848;2023-03-01T04:06:38;5.82;;;2.28;;
42018;SDS011;27703;51.980;5.848;2023-03-01T04:09:03;3.38;;;1.70;;
42018;SDS011;27703;51.980;5.848;2023-03-01T04:11:29;5.55;;;1.98;;
42018;SDS011;27703;51.980;5.848;2023-03-01T04:13:56;5.05;;;1.95;;
42018;SDS011;27703;51.980;5.848;2023-03-01T04:16:23;2.35;;;1.38;;
42018;SDS011;27703;51.980;5.848;2023-03-01T04:18:49;2.90;;;1.50;;
42018;SDS011;27703;51.980;5.848;2023-03-01T04:21:15;3.47;;;1.30;;
42018;SDS011;27703;51.980;5.848;2023-03-01T04:23:41;3.47;;;1.02;;
42018;SDS011;27703;51.980;5.848;2023-03-01T04:26:07;2.53;;;1.40;;
42018;SDS011;27703;51.980;5.848;2023-03-01T04:28:37;3.58;;;1.23;;
42018;SDS011;27703;51.980;5.848;2023-03-01T04:31:09;2.80;;;1.10;;
42018;SDS011;27703;51.980;5.848;2023-03-01T04:33:39;2.42;;;1.08;;
42018;SDS011;27703;51.980;5.848;2023-03-01T04:36:06;4.40;;;1.98;;
42018;SDS011;27703;51.980;5.848;2023-03-01T04:38:33;2.70;;;1.55;;
42018;SDS011;27703;51.980;5.848;2023-03-01T04:40:59;3.70;;;1.60;;
42018;SDS011;27703;51.980;5.848;2023-03-01T04:43:25;4.40;;;0.95;;
42018;SDS011;27703;51.980;5.848;2023-03-01T04:45:51;3.50;;;1.70;;
42018;SDS011;27703;51.980;5.848;2023-03-01T04:48:16;3.15;;;1.33;;
42018;SDS011;27703;51.980;5.848;2023-03-01T04:50:42;2.45;;;1.00;;
42018;SDS011;27703;51.980;5.848;2023-03-01T04:53:07;2.83;;;1.65;;
42018;SDS011;27703;51.980;5.848;2023-03-01T04:55:33;4.22;;;1.33;;
42018;SDS011;27703;51.980;5.848;2023-03-01T04:57:58;1.90;;;1.00;;
42018;SDS011;27703;51.980;5.848;2023-03-01T05:00:24;4.07;;;1.63;;
42018;SDS011;27703;51.980;5.848;2023-03-01T05:02:52;4.68;;;1.50;;
42018;SDS011;27703;51.980;5.848;2023-03-01T05:05:23;3.28;;;1.60;;
42018;SDS011;27703;51.980;5.848;2023-03-01T05:07:52;2.13;;;1.20;;
42018;SDS011;27703;51.980;5.848;2023-03-01T05:10:22;2.83;;;1.30;;
42018;SDS011;27703;51.980;5.848;2023-03-01T05:12:49;3.28;;;1.77;;
42018;SDS011;27703;51.980;5.848;2023-03-01T05:15:17;2.67;;;1.92;;
42018;SDS011;27703;51.980;5.848;2023-03-01T05:17:43;4.13;;;1.63;;
42018;SDS011;27703;51.980;5.848;2023-03-01T05:20:09;3.13;;;1.70;;
42018;SDS011;27703;51.980;5.848;2023-03-01T05:22:35;2.40;;;1.58;;
42018;SDS011;27703;51.980;5.848;2023-03-01T05:25:01;3.78;;;1.80;;
42018;SDS011;27703;51.980;5.848;2023-03-01T05:27:27;3.13;;;1.58;;
42018;SDS011;27703;51.980;5.848;2023-03-01T05:29:54;5.03;;;1.70;;
42018;SDS011;27703;51.980;5.848;2023-03-01T05:32:20;3.60;;;1.23;;
42018;SDS011;27703;51.980;5.848;2023-03-01T05:34:45;3.42;;;1.52;;
42018;SDS011;27703;51.980;5.848;2023-03-01T05:37:12;3.83;;;2.00;;
42018;SDS011;27703;51.980;5.848;2023-03-01T05:39:38;4.50;;;1.40;;
42018;SDS011;27703;51.980;5.848;2023-03-01T05:42:04;3.75;;;1.40;;
42018;SDS011;27703;51.980;5.848;2023-03-01T05:44:29;3.65;;;2.08;;
42018;SDS011;27703;51.980;5.848;2023-03-01T05:46:55;5.43;;;1.83;;
42018;SDS011;27703;51.980;5.848;2023-03-01T05:49:22;4.57;;;2.10;;
42018;SDS011;27703;51.980;5.848;2023-03-01T05:51:51;9.68;;;2.25;;
42018;SDS011;27703;51.980;5.848;2023-03-01T05:54:18;2.97;;;1.83;;
42018;SDS011;27703;51.980;5.848;2023-03-01T05:56:44;3.25;;;1.85;;
42018;SDS011;27703;51.980;5.848;2023-03-01T05:59:10;4.78;;;1.20;;
42018;SDS011;27703;51.980;5.848;2023-03-01T06:01:36;3.90;;;2.08;;
42018;SDS011;27703;51.980;5.848;2023-03-01T06:04:02;2.65;;;1.50;;
42018;SDS011;27703;51.980;5.848;2023-03-01T06:06:28;3.92;;;1.85;;
42018;SDS011;27703;51.980;5.848;2023-03-01T06:08:54;3.25;;;1.88;;
42018;SDS011;27703;51.980;5.848;2023-03-01T06:11:20;4.65;;;2.20;;
42018;SDS011;27703;51.980;5.848;2023-03-01T06:13:46;4.45;;;2.00;;
42018;SDS011;27703;51.980;5.848;2023-03-01T06:16:13;4.30;;;2.13;;
42018;SDS011;27703;51.980;5.848;2023-03-01T06:18:39;5.68;;;2.80;;
42018;SDS011;27703;51.980;5.848;2023-03-01T06:21:05;4.68;;;2.42;;
42018;SDS011;27703;51.980;5.848;2023-03-01T06:23:32;5.78;;;2.63;;
42018;SDS011;27703;51.980;5.848;2023-03-01T06:25:58;3.58;;;2.40;;
42018;SDS011;27703;51.980;5.848;2023-03-01T06:28:24;8.05;;;3.03;;
42018;SDS011;27703;51.980;5.848;2023-03-01T06:30:50;4.28;;;2.88;;
42018;SDS011;27703;51.980;5.848;2023-03-01T06:33:16;6.93;;;3.35;;
42018;SDS011;27703;51.980;5.848;2023-03-01T06:35:44;4.80;;;3.50;;
42018;SDS011;27703;51.980;5.848;2023-03-01T06:38:13;4.80;;;3.33;;
42018;SDS011;27703;51.980;5.848;2023-03-01T06:40:40;6.35;;;3.35;;
42018;SDS011;27703;51.980;5.848;2023-03-01T06:43:05;5.80;;;3.28;;
42018;SDS011;27703;51.980;5.848;2023-03-01T06:45:32;4.20;;;2.75;;
42018;SDS011;27703;51.980;5.848;2023-03-01T06:48:01;6.13;;;3.45;;
42018;SDS011;27703;51.980;5.848;2023-03-01T06:50:29;9.45;;;4.05;;
42018;SDS011;27703;51.980;5.848;2023-03-01T06:52:55;4.72;;;3.15;;
42018;SDS011;27703;51.980;5.848;2023-03-01T06:55:21;10.95;;;4.07;;
42018;SDS011;27703;51.980;5.848;2023-03-01T06:57:47;14.32;;;5.28;;
42018;SDS011;27703;51.980;5.848;2023-03-01T07:00:13;11.45;;;4.72;;
42018;SDS011;27703;51.980;5.848;2023-03-01T07:02:39;9.82;;;3.78;;
42018;SDS011;27703;51.980;5.848;2023-03-01T07:05:04;7.45;;;3.67;;
42018;SDS011;27703;51.980;5.848;2023-03-01T07:07:30;6.93;;;3.05;;
42018;SDS011;27703;51.980;5.848;2023-03-01T07:09:56;7.43;;;3.28;;
42018;SDS011;27703;51.980;5.848;2023-03-01T07:12:22;6.93;;;2.55;;
42018;SDS011;27703;51.980;5.848;2023-03-01T07:14:47;6.25;;;3.28;;
42018;SDS011;27703;51.980;5.848;2023-03-01T07:17:13;6.53;;;2.67;;
42018;SDS011;27703;51.980;5.848;2023-03-01T07:19:38;7.10;;;2.45;;
42018;SDS011;27703;51.980;5.848;2023-03-01T07:22:04;8.93;;;3.65;;
42018;SDS011;27703;51.980;5.848;2023-03-01T07:24:32;10.00;;;4.35;;
42018;SDS011;27703;51.980;5.848;2023-03-01T07:26:58;10.65;;;4.68;;
42018;SDS011;27703;51.980;5.848;2023-03-01T07:29:24;9.65;;;4.85;;
42018;SDS011;27703;51.980;5.848;2023-03-01T07:31:49;12.07;;;4.93;;
42018;SDS011;27703;51.980;5.848;2023-03-01T07:34:15;9.52;;;3.83;;
42018;SDS011;27703;51.980;5.848;2023-03-01T07:36:40;8.25;;;3.08;;
42018;SDS011;27703;51.980;5.848;2023-03-01T07:39:08;9.43;;;3.70;;
42018;SDS011;27703;51.980;5.848;2023-03-01T07:41:35;8.30;;;3.95;;
42018;SDS011;27703;51.980;5.848;2023-03-01T07:44:00;5.35;;;2.65;;
42018;SDS011;27703;51.980;5.848;2023-03-01T07:46:26;6.38;;;3.17;;
42018;SDS011;27703;51.980;5.848;2023-03-01T07:48:52;6.22;;;2.58;;
42018;SDS011;27703;51.980;5.848;2023-03-01T07:51:18;4.38;;;2.45;;
42018;SDS011;27703;51.980;5.848;2023-03-01T07:53:45;6.18;;;2.80;;
42018;SDS011;27703;51.980;5.848;2023-03-01T07:56:12;3.72;;;2.15;;
42018;SDS011;27703;51.980;5.848;2023-03-01T07:58:41;4.43;;;1.95;;
42018;SDS011;27703;51.980;5.848;2023-03-01T08:01:08;6.93;;;2.17;;
42018;SDS011;27703;51.980;5.848;2023-03-01T08:03:35;3.42;;;1.58;;
42018;SDS011;27703;51.980;5.848;2023-03-01T08:06:02;5.43;;;1.40;;
42018;SDS011;27703;51.980;5.848;2023-03-01T08:08:29;5.90;;;2.25;;
42018;SDS011;27703;51.980;5.848;2023-03-01T08:11:01;6.25;;;2.40;;
42018;SDS011;27703;51.980;5.848;2023-03-01T08:13:28;3.72;;;1.73;;
42018;SDS011;27703;51.980;5.848;2023-03-01T08:16:00;5.00;;;1.48;;
42018;SDS011;27703;51.980;5.848;2023-03-01T08:18:27;5.40;;;1.65;;
42018;SDS011;27703;51.980;5.848;2023-03-01T08:20:52;4.63;;;1.90;;
42018;SDS011;27703;51.980;5.848;2023-03-01T08:23:18;3.60;;;1.27;;
42018;SDS011;27703;51.980;5.848;2023-03-01T08:25:43;3.08;;;1.52;;
42018;SDS011;27703;51.980;5.848;2023-03-01T08:28:09;3.22;;;1.88;;
42018;SDS011;27703;51.980;5.848;2023-03-01T08:30:34;4.95;;;1.60;;
42018;SDS011;27703;51.980;5.848;2023-03-01T08:33:00;5.35;;;1.83;;
42018;SDS011;27703;51.980;5.848;2023-03-01T08:35:25;4.30;;;2.33;;
42018;SDS011;27703;51.980;5.848;2023-03-01T08:37:51;3.60;;;1.25;;
42018;SDS011;27703;51.980;5.848;2023-03-01T08:40:17;3.83;;;1.85;;
42018;SDS011;27703;51.980;5.848;2023-03-01T08:42:42;4.85;;;2.22;;
42018;SDS011;27703;51.980;5.848;2023-03-01T08:45:08;5.57;;;1.98;;
42018;SDS011;27703;51.980;5.848;2023-03-01T08:47:35;6.07;;;2.20;;
42018;SDS011;27703;51.980;5.848;2023-03-01T08:50:01;7.50;;;2.72;;
42018;SDS011;27703;51.980;5.848;2023-03-01T08:52:27;5.18;;;2.28;;
42018;SDS011;27703;51.980;5.848;2023-03-01T08:54:55;4.28;;;2.25;;
42018;SDS011;27703;51.980;5.848;2023-03-01T08:57:21;5.70;;;2.42;;
42018;SDS011;27703;51.980;5.848;2023-03-01T08:59:46;5.30;;;2.45;;
42018;SDS011;27703;51.980;5.848;2023-03-01T09:02:13;3.63;;;2.10;;
42018;SDS011;27703;51.980;5.848;2023-03-01T09:04:40;6.43;;;1.85;;
42018;SDS011;27703;51.980;5.848;2023-03-01T09:07:06;6.10;;;2.85;;
42018;SDS011;27703;51.980;5.848;2023-03-01T09:09:31;5.45;;;2.05;;
42018;SDS011;27703;51.980;5.848;2023-03-01T09:11:57;3.90;;;2.25;;
42018;SDS011;27703;51.980;5.848;2023-03-01T09:14:22;4.45;;;1.45;;
42018;SDS011;27703;51.980;5.848;2023-03-01T09:16:48;4.82;;;2.03;;
42018;SDS011;27703;51.980;5.848;2023-03-01T09:19:14;4.05;;;1.95;;
42018;SDS011;27703;51.980;5.848;2023-03-01T09:21:39;3.35;;;1.77;;
42018;SDS011;27703;51.980;5.848;2023-03-01T09:24:05;2.85;;;1.45;;
42018;SDS011;27703;51.980;5.848;2023-03-01T09:26:36;6.00;;;2.00;;
42018;SDS011;27703;51.980;5.848;2023-03-01T09:29:02;4.15;;;1.45;;
42018;SDS011;27703;51.980;5.848;2023-03-01T09:31:27;2.17;;;1.00;;
42018;SDS011;27703;51.980;5.848;2023-03-01T09:33:53;5.35;;;1.52;;
42018;SDS011;27703;51.980;5.848;2023-03-01T09:36:20;1.92;;;1.00;;
42018;SDS011;27703;51.980;5.848;2023-03-01T09:38:48;4.85;;;1.58;;
42018;SDS011;27703;51.980;5.848;2023-03-01T09:46:19;5.30;;;2.33;;
42018;SDS011;27703;51.980;5.848;2023-03-01T09:48:57;9.25;;;3.97;;
42018;SDS011;27703;51.980;5.848;2023-03-01T09:51:31;5.97;;;3.63;;
42018;SDS011;27703;51.980;5.848;2023-03-01T09:53:58;4.50;;;3.17;;
42018;SDS011;27703;51.980;5.848;2023-03-01T10:04:55;7.90;;;5.18;;
42018;SDS011;27703;51.980;5.848;2023-03-01T10:12:56;8.27;;;4.18;;
42018;SDS011;27703;51.980;5.848;2023-03-01T10:15:34;7.00;;;3.67;;
42018;SDS011;27703;51.980;5.848;2023-03-01T10:18:04;9.18;;;4.63;;
42018;SDS011;27703;51.980;5.848;2023-03-01T10:20:46;6.90;;;4.03;;
42018;SDS011;27703;51.980;5.848;2023-03-01T10:23:18;6.72;;;4.85;;
42018;SDS011;27703;51.980;5.848;2023-03-01T10:25:56;5.55;;;3.97;;
42018;SDS011;27703;51.980;5.848;2023-03-01T10:31:44;7.00;;;3.55;;
42018;SDS011;27703;51.980;5.848;2023-03-01T10:36:40;4.75;;;2.97;;
42018;SDS011;27703;51.980;5.848;2023-03-01T10:39:12;7.80;;;2.92;;
42018;SDS011;27703;51.980;5.848;2023-03-01T10:41:54;5.78;;;2.20;;
42018;SDS011;27703;51.980;5.848;2023-03-01T10:44:37;3.50;;;2.10;;
42018;SDS011;27703;51.980;5.848;2023-03-01T10:50:00;4.78;;;2.22;;
42018;SDS011;27703;51.980;5.848;2023-03-01T10:52:32;4.38;;;2.15;;
42018;SDS011;27703;51.980;5.848;2023-03-01T10:55:01;5.90;;;3.15;;
42018;SDS011;27703;51.980;5.848;2023-03-01T10:57:46;4.60;;;2.47;;
42018;SDS011;27703;51.980;5.848;2023-03-01T11:02:49;4.05;;;2.30;;
42018;SDS011;27703;51.980;5.848;2023-03-01T11:05:26;3.83;;;1.90;;
42018;SDS011;27703;51.980;5.848;2023-03-01T11:07:56;4.30;;;2.03;;
42018;SDS011;27703;51.980;5.848;2023-03-01T11:10:32;4.28;;;1.70;;
42018;SDS011;27703;51.980;5.848;2023-03-01T11:15:58;3.63;;;1.58;;
42018;SDS011;27703;51.980;5.848;2023-03-01T11:18:25;2.93;;;1.63;;
42018;SDS011;27703;51.980;5.848;2023-03-01T11:20:51;3.97;;;1.60;;
42018;SDS011;27703;51.980;5.848;2023-03-01T11:23:20;3.58;;;1.90;;
42018;SDS011;27703;51.980;5.848;2023-03-01T11:25:56;3.85;;;1.98;;
42018;SDS011;27703;51.980;5.848;2023-03-01T11:28:29;3.00;;;1.38;;
42018;SDS011;27703;51.980;5.848;2023-03-01T11:31:05;3.67;;;1.58;;
42018;SDS011;27703;51.980;5.848;2023-03-01T11:38:34;5.65;;;2.80;;
42018;SDS011;27703;51.980;5.848;2023-03-01T11:41:08;4.07;;;1.98;;
42018;SDS011;27703;51.980;5.848;2023-03-01T11:46:34;2.35;;;1.30;;
42018;SDS011;27703;51.980;5.848;2023-03-01T11:49:17;5.60;;;2.38;;
42018;SDS011;27703;51.980;5.848;2023-03-01T12:00:14;3.92;;;1.67;;
42018;SDS011;27703;51.980;5.848;2023-03-01T12:03:09;4.97;;;1.85;;
42018;SDS011;27703;51.980;5.848;2023-03-01T12:09:09;3.90;;;1.50;;
42018;SDS011;27703;51.980;5.848;2023-03-01T12:12:08;9.55;;;2.05;;
42018;SDS011;27703;51.980;5.848;2023-03-01T12:14:45;3.92;;;2.08;;
42018;SDS011;27703;51.980;5.848;2023-03-01T12:20:02;3.05;;;1.55;;
42018;SDS011;27703;51.980;5.848;2023-03-01T12:36:39;3.30;;;1.70;;
42018;SDS011;27703;51.980;5.848;2023-03-01T12:45:16;4.60;;;2.20;;
42018;SDS011;27703;51.980;5.848;2023-03-01T12:48:15;5.88;;;2.15;;
42018;SDS011;27703;51.980;5.848;2023-03-01T12:51:05;2.38;;;1.73;;
42018;SDS011;27703;51.980;5.848;2023-03-01T12:53:36;3.10;;;1.42;;
42018;SDS011;27703;51.980;5.848;2023-03-01T12:56:08;7.15;;;2.35;;
42018;SDS011;27703;51.980;5.848;2023-03-01T12:58:50;4.03;;;1.88;;
42018;SDS011;27703;51.980;5.848;2023-03-01T13:01:35;3.45;;;1.85;;
42018;SDS011;27703;51.980;5.848;2023-03-01T13:04:12;7.38;;;2.08;;
42018;SDS011;27703;51.980;5.848;2023-03-01T13:07:20;5.15;;;2.13;;
42018;SDS011;27703;51.980;5.848;2023-03-01T13:10:06;2.40;;;1.20;;
42018;SDS011;27703;51.980;5.848;2023-03-01T13:15:36;2.63;;;1.17;;
42018;SDS011;27703;51.980;5.848;2023-03-01T13:18:03;3.40;;;1.45;;
42018;SDS011;27703;51.980;5.848;2023-03-01T13:20:34;2.85;;;1.55;;
42018;SDS011;27703;51.980;5.848;2023-03-01T13:31:55;3.22;;;1.20;;
42018;SDS011;27703;51.980;5.848;2023-03-01T13:34:02;4.43;;;1.30;;
42018;SDS011;27703;51.980;5.848;2023-03-01T13:39:03;2.67;;;1.17;;
42018;SDS011;27703;51.980;5.848;2023-03-01T13:41:52;6.15;;;1.80;;
42018;SDS011;27703;51.980;5.848;2023-03-01T13:46:57;3.78;;;1.23;;
42018;SDS011;27703;51.980;5.848;2023-03-01T13:49:43;2.55;;;1.30;;
42018;SDS011;27703;51.980;5.848;2023-03-01T13:52:23;5.95;;;1.58;;
42018;SDS011;27703;51.980;5.848;2023-03-01T13:58:16;2.88;;;1.55;;
42018;SDS011;27703;51.980;5.848;2023-03-01T14:06:00;2.28;;;1.20;;
42018;SDS011;27703;51.980;5.848;2023-03-01T14:08:29;2.92;;;1.00;;
42018;SDS011;27703;51.980;5.848;2023-03-01T14:13:32;3.70;;;1.30;;
42018;SDS011;27703;51.980;5.848;2023-03-01T14:19:26;4.00;;;1.13;;
42018;SDS011;27703;51.980;5.848;2023-03-01T14:22:00;3.83;;;2.00;;
42018;SDS011;27703;51.980;5.848;2023-03-01T14:27:45;2.85;;;1.10;;
42018;SDS011;27703;51.980;5.848;2023-03-01T14:30:37;2.70;;;1.13;;
42018;SDS011;27703;51.980;5.848;2023-03-01T14:33:17;2.37;;;1.30;;
42018;SDS011;27703;51.980;5.848;2023-03-01T14:36:25;3.25;;;1.58;;
42018;SDS011;27703;51.980;5.848;2023-03-01T14:38:39;2.72;;;1.35;;
42018;SDS011;27703;51.980;5.848;2023-03-01T14:41:16;2.60;;;1.23;;
42018;SDS011;27703;51.980;5.848;2023-03-01T14:43:49;4.00;;;2.03;;
42018;SDS011;27703;51.980;5.848;2023-03-01T14:46:18;3.03;;;1.38;;
42018;SDS011;27703;51.980;5.848;2023-03-01T14:49:01;2.88;;;1.35;;
42018;SDS011;27703;51.980;5.848;2023-03-01T14:51:35;3.90;;;1.50;;
42018;SDS011;27703;51.980;5.848;2023-03-01T14:54:02;2.35;;;1.40;;
42018;SDS011;27703;51.980;5.848;2023-03-01T14:56:37;2.72;;;1.10;;
42018;SDS011;27703;51.980;5.848;2023-03-01T14:59:09;3.78;;;1.05;;
42018;SDS011;27703;51.980;5.848;2023-03-01T15:01:35;3.42;;;1.00;;
42018;SDS011;27703;51.980;5.848;2023-03-01T15:04:01;3.47;;;1.20;;
42018;SDS011;27703;51.980;5.848;2023-03-01T15:06:27;4.00;;;1.77;;
42018;SDS011;27703;51.980;5.848;2023-03-01T15:08:53;1.90;;;0.90;;
42018;SDS011;27703;51.980;5.848;2023-03-01T15:11:31;1.85;;;1.02;;
42018;SDS011;27703;51.980;5.848;2023-03-01T15:13:57;4.38;;;1.40;;
42018;SDS011;27703;51.980;5.848;2023-03-01T15:16:25;3.90;;;1.30;;
42018;SDS011;27703;51.980;5.848;2023-03-01T15:18:54;2.88;;;1.33;;
42018;SDS011;27703;51.980;5.848;2023-03-01T15:21:26;2.30;;;0.80;;
42018;SDS011;27703;51.980;5.848;2023-03-01T15:24:06;4.53;;;1.92;;
42018;SDS011;27703;51.980;5.848;2023-03-01T15:26:45;6.07;;;1.23;;
42018;SDS011;27703;51.980;5.848;2023-03-01T15:29:23;2.10;;;1.00;;
42018;SDS011;27703;51.980;5.848;2023-03-01T15:32:37;3.03;;;0.88;;
42018;SDS011;27703;51.980;5.848;2023-03-01T15:34:49;2.75;;;1.25;;
42018;SDS011;27703;51.980;5.848;2023-03-01T15:37:48;2.33;;;1.08;;
42018;SDS011;27703;51.980;5.848;2023-03-01T15:40:18;2.35;;;1.27;;
42018;SDS011;27703;51.980;5.848;2023-03-01T15:42:45;2.95;;;0.85;;
42018;SDS011;27703;51.980;5.848;2023-03-01T15:45:19;2.78;;;1.48;;
42018;SDS011;27703;51.980;5.848;2023-03-01T15:47:48;2.05;;;1.30;;
42018;SDS011;27703;51.980;5.848;2023-03-01T15:50:29;2.92;;;1.20;;
42018;SDS011;27703;51.980;5.848;2023-03-01T15:52:58;2.03;;;0.80;;
42018;SDS011;27703;51.980;5.848;2023-03-01T15:55:26;2.45;;;0.90;;
42018;SDS011;27703;51.980;5.848;2023-03-01T15:57:58;1.92;;;0.80;;
42018;SDS011;27703;51.980;5.848;2023-03-01T16:00:31;3.28;;;1.08;;
42018;SDS011;27703;51.980;5.848;2023-03-01T16:02:57;2.42;;;1.00;;
42018;SDS011;27703;51.980;5.848;2023-03-01T16:05:30;3.13;;;0.93;;
42018;SDS011;27703;51.980;5.848;2023-03-01T16:07:58;2.45;;;1.02;;
42018;SDS011;27703;51.980;5.848;2023-03-01T16:10:24;2.17;;;1.00;;
42018;SDS011;27703;51.980;5.848;2023-03-01T16:12:50;2.65;;;0.98;;
42018;SDS011;27703;51.980;5.848;2023-03-01T16:17:47;2.25;;;0.95;;
42018;SDS011;27703;51.980;5.848;2023-03-01T16:20:13;2.97;;;1.00;;
42018;SDS011;27703;51.980;5.848;2023-03-01T16:22:41;3.05;;;1.10;;
42018;SDS011;27703;51.980;5.848;2023-03-01T16:25:14;2.45;;;1.30;;
42018;SDS011;27703;51.980;5.848;2023-03-01T16:27:45;3.95;;;1.30;;
42018;SDS011;27703;51.980;5.848;2023-03-01T16:30:12;4.18;;;1.33;;
42018;SDS011;27703;51.980;5.848;2023-03-01T16:32:39;3.28;;;1.17;;
42018;SDS011;27703;51.980;5.848;2023-03-01T16:35:10;3.45;;;1.38;;
42018;SDS011;27703;51.980;5.848;2023-03-01T16:37:37;3.67;;;0.98;;
42018;SDS011;27703;51.980;5.848;2023-03-01T16:40:04;4.05;;;1.42;;
42018;SDS011;27703;51.980;5.848;2023-03-01T16:42:34;5.55;;;1.40;;
42018;SDS011;27703;51.980;5.848;2023-03-01T16:45:00;3.53;;;1.73;;
42018;SDS011;27703;51.980;5.848;2023-03-01T16:47:26;2.75;;;1.55;;
42018;SDS011;27703;51.980;5.848;2023-03-01T16:49:52;3.25;;;1.35;;
42018;SDS011;27703;51.980;5.848;2023-03-01T16:52:19;2.30;;;0.95;;
42018;SDS011;27703;51.980;5.848;2023-03-01T16:54:45;2.65;;;0.98;;
42018;SDS011;27703;51.980;5.848;2023-03-01T16:57:10;2.08;;;0.70;;
42018;SDS011;27703;51.980;5.848;2023-03-01T16:59:36;2.72;;;1.00;;
42018;SDS011;27703;51.980;5.848;2023-03-01T17:02:02;3.83;;;0.93;;
42018;SDS011;27703;51.980;5.848;2023-03-01T17:04:35;1.90;;;0.82;;
42018;SDS011;27703;51.980;5.848;2023-03-01T17:07:01;1.80;;;0.70;;